createdAt,value
2023-04-16T00:00:14.265Z,73.99
2023-04-16T00:02:45.164Z,73.62
2023-04-16T00:05:16.281Z,73.77
2023-04-16T00:07:46.996Z,73.78
2023-04-16T00:10:17.679Z,74.23
2023-04-16T00:12:48.597Z,74.15
2023-04-16T00:15:19.355Z,74.17
2023-04-16T00:17:50.090Z,73.73
2023-04-16T00:20:21.520Z,73.70
2023-04-16T00:22:52.230Z,72.99
2023-04-16T00:25:23.201Z,72.95
2023-04-16T00:27:54.011Z,73.11
2023-04-16T00:30:24.834Z,73.23
2023-04-16T00:32:55.657Z,73.05
2023-04-16T00:35:26.665Z,73.12
2023-04-16T00:37:57.325Z,72.72
2023-04-16T00:40:30.022Z,72.46
2023-04-16T00:43:00.811Z,72.15
2023-04-16T00:45:31.570Z,72.47
2023-04-16T00:48:04.216Z,72.22
2023-04-16T00:50:36.091Z,72.21
2023-04-16T00:53:07.326Z,72.12
2023-04-16T00:55:38.326Z,72.42
2023-04-16T00:58:09.219Z,72.56
2023-04-16T01:00:39.971Z,72.12
2023-04-16T01:03:12.327Z,72.32
2023-04-16T01:05:43.873Z,72.05
2023-04-16T01:08:20.053Z,71.61
2023-04-16T01:10:50.865Z,71.81
2023-04-16T01:13:21.665Z,71.83
2023-04-16T01:15:52.435Z,72.15
2023-04-16T01:18:24.302Z,72.42
2023-04-16T01:20:55.412Z,72.35
2023-04-16T01:23:26.569Z,72.58
2023-04-16T01:25:57.866Z,72.59
2023-04-16T01:28:28.529Z,72.51
2023-04-16T01:30:59.404Z,72.86
2023-04-16T01:33:48.773Z,72.88
2023-04-16T01:36:19.590Z,72.38
2023-04-16T01:38:51.104Z,72.36
2023-04-16T01:41:21.695Z,72.57
2023-04-16T01:43:52.529Z,72.69
2023-04-16T01:46:28.756Z,72.72
2023-04-16T01:49:00.033Z,72.96
2023-04-16T01:51:31.332Z,73.15
2023-04-16T01:54:02.321Z,73.24
2023-04-16T01:56:32.968Z,72.72
2023-04-16T01:59:03.615Z,72.62
2023-04-16T02:01:39.230Z,72.83
2023-04-16T02:04:10.613Z,73.04
2023-04-16T02:06:41.988Z,72.57
2023-04-16T02:09:12.796Z,72.45
2023-04-16T02:11:43.609Z,72.36
2023-04-16T02:14:14.391Z,71.21
2023-04-16T02:16:45.725Z,71.43
2023-04-16T02:19:26.840Z,72.20
2023-04-16T02:21:57.625Z,72.73
2023-04-16T02:24:28.430Z,72.80
2023-04-16T02:26:59.688Z,72.43
2023-04-16T02:29:31.906Z,73.06
2023-04-16T02:32:09.121Z,73.51
2023-04-16T02:34:40.377Z,73.93
2023-04-16T02:37:11.326Z,74.20
2023-04-16T02:39:43.137Z,73.98
2023-04-16T02:42:14.197Z,73.45
2023-04-16T02:44:44.953Z,73.28
2023-04-16T02:47:15.747Z,73.33
2023-04-16T02:49:46.330Z,73.19
2023-04-16T02:52:17.067Z,73.73
2023-04-16T02:54:47.834Z,73.19
2023-04-16T02:57:18.478Z,73.40
2023-04-16T02:59:49.152Z,73.39
2023-04-16T03:02:19.843Z,72.98
2023-04-16T03:04:50.547Z,72.97
2023-04-16T03:07:21.212Z,73.19
2023-04-16T03:09:51.849Z,73.68
2023-04-16T03:12:22.479Z,73.56
2023-04-16T03:14:54.473Z,73.31
2023-04-16T03:17:25.315Z,72.69
2023-04-16T03:19:55.976Z,72.38
2023-04-16T03:22:27.026Z,72.50
2023-04-16T03:24:57.867Z,73.60
2023-04-16T03:27:28.602Z,73.70
2023-04-16T03:29:59.315Z,73.25
2023-04-16T03:32:30.722Z,73.39
2023-04-16T03:35:01.423Z,73.88
2023-04-16T03:37:32.222Z,74.09
2023-04-16T03:40:05.084Z,73.78
2023-04-16T03:42:36.120Z,73.95
2023-04-16T03:45:09.528Z,73.09
2023-04-16T03:47:40.635Z,73.15
2023-04-16T03:50:13.328Z,73.03
2023-04-16T03:52:44.946Z,72.78
2023-04-16T03:55:16.503Z,73.07
2023-04-16T03:57:47.192Z,73.06
2023-04-16T04:00:19.853Z,72.47
2023-04-16T04:03:02.279Z,72.36
2023-04-16T04:05:36.886Z,72.49
2023-04-16T04:08:08.877Z,71.62
2023-04-16T04:10:39.998Z,72.29
2023-04-16T04:13:10.968Z,72.62
2023-04-16T04:15:41.746Z,72.61
2023-04-16T04:18:12.525Z,71.95
2023-04-16T04:20:43.656Z,71.94
2023-04-16T04:23:18.600Z,71.78
2023-04-16T04:25:49.927Z,72.04
2023-04-16T04:28:20.821Z,71.84
2023-04-16T04:30:52.016Z,72.37
2023-04-16T04:33:23.028Z,71.33
2023-04-16T04:35:54.413Z,71.81
2023-04-16T04:38:25.673Z,71.73
2023-04-16T04:40:56.873Z,70.66
2023-04-16T04:43:27.913Z,70.65
2023-04-16T04:45:58.673Z,70.71
2023-04-16T04:48:31.070Z,70.65
2023-04-16T04:51:05.184Z,70.74
2023-04-16T04:53:36.455Z,70.91
2023-04-16T04:56:12.825Z,71.18
2023-04-16T04:58:44.608Z,71.26
2023-04-16T05:01:16.041Z,71.33
2023-04-16T05:03:47.178Z,71.45
2023-04-16T05:06:19.557Z,71.66
2023-04-16T05:08:50.166Z,71.70
2023-04-16T05:11:21.097Z,71.71
2023-04-16T05:13:52.176Z,71.92
2023-04-16T05:16:22.939Z,72.15
2023-04-16T05:18:53.701Z,72.17
2023-04-16T05:21:24.348Z,72.38
2023-04-16T05:23:55.086Z,72.34
2023-04-16T05:26:25.691Z,72.50
2023-04-16T05:28:56.298Z,72.49
2023-04-16T05:31:27.008Z,72.49
2023-04-16T05:33:58.284Z,72.45
2023-04-16T05:36:29.021Z,72.42
2023-04-16T05:38:59.777Z,72.23
2023-04-16T05:41:30.581Z,72.21
2023-04-16T05:44:01.240Z,72.17
2023-04-16T05:46:32.089Z,72.01
2023-04-16T05:49:02.761Z,72.13
2023-04-16T05:51:33.730Z,71.82
2023-04-16T05:54:05.107Z,71.76
2023-04-16T05:56:46.365Z,71.47
2023-04-16T05:59:17.044Z,71.51
2023-04-16T06:01:47.870Z,71.29
2023-04-16T06:04:18.672Z,71.15
2023-04-16T06:06:49.324Z,71.07
2023-04-16T06:09:20.023Z,70.94
2023-04-16T06:11:50.924Z,70.87
2023-04-16T06:14:22.014Z,70.29
2023-04-16T06:16:52.821Z,70.02
2023-04-16T06:19:23.612Z,70.43
2023-04-16T06:21:54.601Z,70.30
2023-04-16T06:24:25.718Z,70.26
2023-04-16T06:26:57.490Z,69.98
2023-04-16T06:29:37.349Z,69.75
2023-04-16T06:32:12.379Z,69.69
2023-04-16T06:34:42.990Z,69.35
2023-04-16T06:37:13.646Z,69.14
2023-04-16T06:39:44.389Z,69.11
2023-04-16T06:42:18.811Z,68.68
2023-04-16T06:44:49.894Z,68.45
2023-04-16T06:47:21.202Z,74.92
2023-04-16T06:49:52.153Z,75.72
2023-04-16T06:52:22.834Z,72.95
2023-04-16T06:54:53.615Z,72.33
2023-04-16T06:57:24.361Z,69.90
2023-04-16T06:59:55.036Z,70.35
2023-04-16T07:02:26.916Z,69.39
2023-04-16T07:04:57.705Z,67.83
2023-04-16T07:07:28.536Z,64.44
2023-04-16T07:10:00.175Z,64.48
2023-04-16T07:12:31.558Z,65.36
2023-04-16T07:15:02.252Z,64.64
2023-04-16T07:17:32.985Z,65.31
2023-04-16T07:20:03.909Z,66.70
2023-04-16T07:22:34.625Z,66.26
2023-04-16T07:25:06.012Z,65.65
2023-04-16T07:27:36.653Z,65.24
2023-04-16T07:30:09.344Z,65.25
2023-04-16T07:32:40.426Z,65.16
2023-04-16T07:35:12.104Z,64.90
2023-04-16T07:37:42.709Z,65.01
2023-04-16T07:40:14.868Z,64.79
2023-04-16T07:42:45.887Z,65.14
2023-04-16T07:45:16.818Z,64.81
2023-04-16T07:47:47.787Z,64.65
2023-04-16T07:50:19.493Z,65.00
2023-04-16T07:52:50.447Z,65.03
2023-04-16T07:55:21.134Z,65.34
2023-04-16T07:57:52.353Z,65.18
2023-04-16T08:00:23.554Z,65.00
2023-04-16T08:02:54.917Z,65.28
2023-04-16T08:05:25.932Z,65.17
2023-04-16T08:07:56.932Z,64.85
2023-04-16T08:10:27.850Z,64.81
2023-04-16T08:12:58.585Z,64.76
2023-04-16T08:15:29.470Z,64.49
2023-04-16T08:18:00.662Z,64.60
2023-04-16T08:20:31.509Z,64.75
2023-04-16T08:23:02.160Z,64.81
2023-04-16T08:25:33.051Z,65.01
2023-04-16T08:28:03.691Z,65.13
2023-04-16T08:30:34.574Z,65.41
2023-04-16T08:33:05.591Z,65.17
2023-04-16T08:35:36.448Z,65.18
2023-04-16T08:38:07.676Z,64.67
2023-04-16T08:40:41.457Z,64.63
2023-04-16T08:43:14.410Z,64.97
2023-04-16T08:45:45.270Z,64.35
2023-04-16T08:48:16.318Z,63.98
2023-04-16T08:50:47.824Z,63.95
2023-04-16T08:53:24.113Z,63.96
2023-04-16T08:55:57.180Z,63.68
2023-04-16T08:58:31.887Z,63.70
2023-04-16T09:01:03.957Z,63.56
2023-04-16T09:03:36.635Z,63.11
2023-04-16T09:06:10.855Z,62.90
2023-04-16T09:08:42.077Z,63.13
2023-04-16T09:11:13.392Z,62.99
2023-04-16T09:13:44.115Z,63.41
2023-04-16T09:16:16.030Z,63.41
2023-04-16T09:18:47.929Z,63.26
2023-04-16T09:21:18.673Z,63.14
2023-04-16T09:23:49.936Z,62.77
2023-04-16T09:26:21.818Z,62.93
2023-04-16T09:28:52.474Z,63.07
2023-04-16T09:31:23.387Z,62.93
2023-04-16T09:34:13.768Z,62.19
2023-04-16T09:36:42.924Z,62.60
2023-04-16T09:39:21.158Z,62.46
2023-04-16T09:41:56.210Z,62.53
2023-04-16T09:44:38.159Z,62.30
2023-04-16T09:47:10.843Z,62.28
2023-04-16T09:49:46.939Z,61.84
2023-04-16T09:52:19.397Z,62.14
2023-04-16T09:54:49.136Z,62.54
2023-04-16T09:57:23.683Z,62.29
2023-04-16T09:59:58.498Z,62.27
2023-04-16T10:02:31.810Z,62.45
2023-04-16T10:05:04.349Z,61.64
2023-04-16T10:07:37.162Z,61.25
2023-04-16T10:10:09.848Z,62.21
2023-04-16T10:12:40.764Z,61.87
2023-04-16T10:15:12.667Z,61.11
2023-04-16T10:17:44.229Z,61.10
2023-04-16T10:20:17.154Z,61.64
2023-04-16T10:22:49.395Z,61.65
2023-04-16T10:25:21.596Z,60.94
2023-04-16T10:27:52.882Z,60.29
2023-04-16T10:30:24.524Z,60.24
2023-04-16T10:32:56.704Z,59.78
2023-04-16T10:35:28.415Z,60.25
2023-04-16T10:38:20.553Z,60.69
2023-04-16T10:40:52.072Z,60.98
2023-04-16T10:43:22.958Z,60.84
2023-04-16T10:45:54.997Z,59.98
2023-04-16T10:48:31.022Z,59.97
2023-04-16T10:51:09.519Z,59.38
2023-04-16T10:53:40.397Z,59.78
2023-04-16T10:56:15.456Z,59.52
2023-04-16T10:58:46.077Z,59.61
2023-04-16T11:01:18.897Z,59.65
2023-04-16T11:03:50.684Z,59.94
2023-04-16T11:06:27.753Z,60.26
2023-04-16T11:08:58.500Z,59.97
2023-04-16T11:11:39.200Z,60.23
2023-04-16T11:14:12.081Z,60.12
2023-04-16T11:16:44.894Z,59.50
2023-04-16T11:19:20.010Z,59.40
2023-04-16T11:21:52.147Z,59.56
2023-04-16T11:24:24.632Z,58.87
2023-04-16T11:26:56.913Z,58.71
2023-04-16T11:29:27.880Z,58.30
2023-04-16T11:31:58.578Z,58.09
2023-04-16T11:34:29.414Z,58.00
2023-04-16T11:37:00.312Z,57.13
2023-04-16T11:39:31.310Z,56.13
2023-04-16T11:42:01.965Z,54.64
2023-04-16T11:44:32.737Z,55.05
2023-04-16T11:47:08.402Z,56.31
2023-04-16T11:49:39.081Z,56.11
2023-04-16T11:52:10.061Z,55.81
2023-04-16T11:54:41.275Z,55.37
2023-04-16T11:57:12.634Z,54.74
2023-04-16T12:00:02.121Z,54.56
2023-04-16T12:02:55.168Z,55.44
2023-04-16T12:05:35.019Z,55.79
2023-04-16T12:08:07.900Z,55.33
2023-04-16T12:10:53.438Z,55.04
2023-04-16T12:13:24.069Z,54.68
2023-04-16T12:15:55.958Z,54.83
2023-04-16T12:18:27.389Z,54.68
2023-04-16T12:20:58.263Z,54.82
2023-04-16T12:23:30.859Z,54.63
2023-04-16T12:26:10.613Z,54.27
2023-04-16T12:28:42.075Z,54.06
2023-04-16T12:31:12.734Z,54.61
2023-04-16T12:33:43.442Z,53.33
2023-04-16T12:36:24.626Z,53.02
2023-04-16T12:38:55.352Z,53.59
2023-04-16T12:41:26.342Z,54.07
2023-04-16T12:44:06.728Z,54.08
2023-04-16T12:46:38.521Z,53.50
2023-04-16T12:49:10.460Z,52.62
2023-04-16T12:51:42.226Z,52.42
2023-04-16T12:54:12.998Z,52.08
2023-04-16T12:56:44.152Z,52.29
2023-04-16T12:59:14.858Z,52.89
2023-04-16T13:01:45.831Z,52.82
2023-04-16T13:04:16.589Z,52.77
2023-04-16T13:06:47.506Z,53.13
2023-04-16T13:09:20.289Z,53.00
2023-04-16T13:11:51.138Z,53.14
2023-04-16T13:14:21.790Z,52.59
2023-04-16T13:16:52.569Z,52.58
2023-04-16T13:19:23.226Z,52.79
2023-04-16T13:21:54.198Z,53.15
2023-04-16T13:24:25.828Z,53.26
2023-04-16T13:26:57.266Z,53.23
2023-04-16T13:29:28.530Z,53.61
2023-04-16T13:31:59.389Z,53.18
2023-04-16T13:34:30.479Z,53.47
2023-04-16T13:37:01.354Z,53.78
2023-04-16T13:39:32.256Z,54.16
2023-04-16T13:42:03.243Z,54.61
2023-04-16T13:44:33.894Z,54.41
2023-04-16T13:47:04.961Z,56.84
2023-04-16T13:49:36.368Z,59.46
2023-04-16T13:52:07.579Z,59.22
2023-04-16T13:54:38.352Z,57.85
2023-04-16T13:57:09.240Z,57.93
2023-04-16T13:59:39.985Z,59.27
2023-04-16T14:02:11.466Z,59.11
2023-04-16T14:04:42.685Z,59.54
2023-04-16T14:07:13.469Z,57.80
2023-04-16T14:09:44.525Z,58.90
2023-04-16T14:12:15.148Z,59.72
2023-04-16T14:14:46.082Z,59.98
2023-04-16T14:17:18.020Z,60.42
2023-04-16T14:19:51.947Z,60.67
2023-04-16T14:22:22.717Z,61.61
2023-04-16T14:24:53.379Z,61.85
2023-04-16T14:27:24.051Z,61.52
2023-04-16T14:29:54.792Z,61.87
2023-04-16T14:32:25.576Z,61.87
2023-04-16T14:34:56.543Z,62.25
2023-04-16T14:37:28.021Z,63.07
2023-04-16T14:39:58.836Z,63.17
2023-04-16T14:42:29.547Z,63.31
2023-04-16T14:45:00.435Z,64.04
2023-04-16T14:47:31.109Z,63.91
2023-04-16T14:50:02.042Z,64.32
2023-04-16T14:52:33.755Z,64.49
2023-04-16T14:55:05.498Z,64.80
2023-04-16T14:57:36.676Z,65.14
2023-04-16T15:00:10.298Z,65.55
2023-04-16T15:02:41.507Z,66.03
2023-04-16T15:05:12.965Z,65.97
2023-04-16T15:07:43.561Z,65.71
2023-04-16T15:10:17.354Z,66.13
2023-04-16T15:12:47.983Z,65.74
2023-04-16T15:15:18.652Z,65.54
2023-04-16T15:17:50.525Z,65.57
2023-04-16T15:20:21.735Z,65.78
2023-04-16T15:22:52.400Z,66.47
2023-04-16T15:25:23.608Z,66.71
2023-04-16T15:27:54.486Z,66.17
2023-04-16T15:30:25.726Z,66.71
2023-04-16T15:32:56.444Z,65.68
2023-04-16T15:35:27.588Z,66.46
2023-04-16T15:37:58.524Z,66.03
2023-04-16T15:40:29.389Z,65.73
2023-04-16T15:43:00.051Z,65.31
2023-04-16T15:45:31.862Z,65.46
2023-04-16T15:48:05.463Z,66.00
2023-04-16T15:50:37.662Z,66.19
2023-04-16T15:53:10.078Z,66.54
2023-04-16T15:55:39.147Z,67.02
2023-04-16T15:58:09.940Z,66.76
2023-04-16T16:00:40.666Z,67.00
2023-04-16T16:03:12.107Z,66.99
2023-04-16T16:05:43.097Z,67.58
2023-04-16T16:08:13.948Z,67.92
2023-04-16T16:10:44.650Z,68.04
2023-04-16T16:13:18.208Z,68.12
2023-04-16T16:15:50.708Z,68.07
2023-04-16T16:18:22.299Z,68.08
2023-04-16T16:20:56.925Z,67.76
2023-04-16T16:23:27.764Z,67.46
2023-04-16T16:25:58.341Z,67.38
2023-04-16T16:28:29.145Z,67.47
2023-04-16T16:31:01.447Z,68.06
2023-04-16T16:33:32.214Z,68.58
2023-04-16T16:36:03.180Z,68.77
2023-04-16T16:38:34.436Z,69.12
2023-04-16T16:41:05.134Z,69.31
2023-04-16T16:43:35.867Z,69.39
2023-04-16T16:46:07.411Z,69.69
2023-04-16T16:48:38.266Z,69.78
2023-04-16T16:51:12.176Z,69.80
2023-04-16T16:53:43.028Z,70.10
2023-04-16T16:56:13.811Z,69.99
2023-04-16T16:58:44.744Z,70.23
2023-04-16T17:01:15.581Z,70.27
2023-04-16T17:03:46.937Z,70.24
2023-04-16T17:06:18.180Z,70.17
2023-04-16T17:08:49.422Z,69.92
2023-04-16T17:11:20.653Z,69.98
2023-04-16T17:13:51.673Z,70.07
2023-04-16T17:16:24.148Z,70.13
2023-04-16T17:18:55.407Z,70.20
2023-04-16T17:21:26.349Z,70.23
2023-04-16T17:23:58.435Z,70.52
2023-04-16T17:26:29.119Z,70.51
2023-04-16T17:28:59.992Z,70.65
2023-04-16T17:31:31.182Z,70.47
2023-04-16T17:34:04.914Z,70.39
2023-04-16T17:36:35.715Z,70.66
2023-04-16T17:39:06.763Z,70.73
2023-04-16T17:41:37.414Z,70.86
2023-04-16T17:44:09.901Z,71.28
2023-04-16T17:46:42.314Z,71.50
2023-04-16T17:49:13.558Z,71.56
2023-04-16T17:51:44.678Z,71.67
2023-04-16T17:54:15.716Z,71.90
2023-04-16T17:56:46.803Z,72.02
2023-04-16T17:59:17.549Z,72.19
2023-04-16T18:01:49.775Z,72.48
2023-04-16T18:04:20.699Z,72.81
2023-04-16T18:06:51.543Z,72.93
2023-04-16T18:09:22.328Z,73.03
2023-04-16T18:11:52.960Z,73.17
2023-04-16T18:14:23.638Z,73.26
2023-04-16T18:16:54.297Z,73.30
2023-04-16T18:19:25.096Z,73.51
2023-04-16T18:21:55.812Z,73.65
2023-04-16T18:24:26.597Z,74.03
2023-04-16T18:26:57.760Z,74.17
2023-04-16T18:29:28.689Z,74.44
2023-04-16T18:32:00.323Z,74.61
2023-04-16T18:34:32.772Z,74.63
2023-04-16T18:37:04.442Z,74.82
2023-04-16T18:39:36.742Z,74.85
2023-04-16T18:42:07.930Z,74.75
2023-04-16T18:44:38.660Z,74.78
2023-04-16T18:47:09.350Z,74.94
2023-04-16T18:49:40.174Z,74.99
2023-04-16T18:52:10.975Z,74.98
2023-04-16T18:54:43.491Z,75.11
2023-04-16T18:57:12.542Z,75.12
2023-04-16T18:59:43.457Z,75.51
2023-04-16T19:02:14.163Z,75.58
2023-04-16T19:04:45.020Z,75.59
2023-04-16T19:07:15.690Z,75.71
2023-04-16T19:09:46.413Z,75.78
2023-04-16T19:12:17.053Z,75.95
2023-04-16T19:14:47.820Z,75.93
2023-04-16T19:17:18.607Z,76.08
2023-04-16T19:19:49.491Z,76.09
2023-04-16T19:22:20.291Z,76.27
2023-04-16T19:24:51.086Z,76.39
2023-04-16T19:27:21.762Z,76.63
2023-04-16T19:29:52.880Z,76.55
2023-04-16T19:32:23.949Z,76.51
2023-04-16T19:34:54.564Z,76.65
2023-04-16T19:37:25.361Z,76.73
2023-04-16T19:39:56.304Z,76.93
2023-04-16T19:42:27.034Z,77.00
2023-04-16T19:44:57.770Z,77.08
2023-04-16T19:47:28.505Z,77.04
2023-04-16T19:49:59.424Z,77.21
2023-04-16T19:52:30.103Z,77.17
2023-04-16T19:55:00.942Z,77.30
2023-04-16T19:57:31.664Z,77.39
2023-04-16T20:00:02.548Z,77.44
2023-04-16T20:02:53.412Z,77.26
2023-04-16T20:05:26.105Z,77.32
2023-04-16T20:07:57.368Z,77.23
2023-04-16T20:10:28.256Z,77.37
2023-04-16T20:12:58.872Z,77.42
2023-04-16T20:15:29.500Z,77.48
2023-04-16T20:18:00.711Z,77.56
2023-04-16T20:20:31.482Z,77.54
2023-04-16T20:23:02.055Z,77.76
2023-04-16T20:25:32.865Z,77.90
2023-04-16T20:28:03.598Z,77.87
2023-04-16T20:30:38.869Z,77.84
2023-04-16T20:33:09.977Z,77.91
2023-04-16T20:35:40.947Z,77.85
2023-04-16T20:38:11.693Z,77.88
2023-04-16T20:40:44.639Z,77.92
2023-04-16T20:43:18.914Z,77.97
2023-04-16T20:45:50.841Z,77.92
2023-04-16T20:48:21.536Z,77.87
2023-04-16T20:50:52.496Z,78.06
2023-04-16T20:53:23.136Z,77.84
2023-04-16T20:55:53.809Z,77.90
2023-04-16T20:58:24.850Z,77.84
2023-04-16T21:00:56.836Z,77.83
2023-04-16T21:03:27.717Z,77.76
2023-04-16T21:05:58.637Z,77.96
2023-04-16T21:08:29.368Z,77.62
2023-04-16T21:11:00.001Z,78.03
2023-04-16T21:13:30.772Z,77.90
2023-04-16T21:16:01.528Z,78.03
2023-04-16T21:18:32.286Z,78.02
2023-04-16T21:21:03.072Z,77.94
2023-04-16T21:23:33.795Z,78.15
2023-04-16T21:26:04.530Z,78.06
2023-04-16T21:28:35.135Z,78.17
2023-04-16T21:31:05.917Z,78.24
2023-04-16T21:33:36.736Z,78.35
2023-04-16T21:36:08.075Z,78.38
2023-04-16T21:38:38.814Z,78.29
2023-04-16T21:41:09.581Z,78.38
2023-04-16T21:43:40.389Z,78.27
2023-04-16T21:46:11.175Z,78.32
2023-04-16T21:48:41.818Z,78.45
2023-04-16T21:51:12.442Z,78.44
2023-04-16T21:53:43.151Z,78.66
2023-04-16T21:56:14.884Z,78.93
2023-04-16T21:58:45.629Z,78.75
2023-04-16T22:01:16.478Z,78.79
2023-04-16T22:03:50.774Z,78.84
2023-04-16T22:06:21.772Z,78.49
2023-04-16T22:08:53.437Z,78.10
2023-04-16T22:11:24.058Z,78.16
2023-04-16T22:13:57.734Z,78.00
2023-04-16T22:16:28.726Z,78.01
2023-04-16T22:19:00.241Z,78.03
2023-04-16T22:21:31.394Z,77.76
2023-04-16T22:24:02.756Z,77.66
2023-04-16T22:26:33.378Z,77.31
2023-04-16T22:29:04.100Z,77.52
2023-04-16T22:31:34.882Z,77.57
2023-04-16T22:34:05.806Z,77.45
2023-04-16T22:36:36.556Z,77.67
2023-04-16T22:39:08.782Z,77.81
2023-04-16T22:41:39.711Z,77.72
2023-04-16T22:44:10.585Z,77.65
2023-04-16T22:46:41.514Z,77.45
2023-04-16T22:49:12.443Z,77.26
2023-04-16T22:51:43.515Z,77.10
2023-04-16T22:54:14.364Z,77.21
2023-04-16T22:56:45.083Z,76.90
2023-04-16T22:59:15.926Z,76.84
2023-04-16T23:01:46.690Z,77.05
2023-04-16T23:04:17.647Z,76.95
2023-04-16T23:06:48.528Z,77.09
2023-04-16T23:09:20.563Z,77.16
2023-04-16T23:11:51.326Z,77.37
2023-04-16T23:14:22.388Z,77.57
2023-04-16T23:16:53.030Z,77.50
2023-04-16T23:19:23.756Z,77.41
2023-04-16T23:21:54.388Z,77.28
2023-04-16T23:24:25.120Z,77.32
2023-04-16T23:26:56.097Z,77.00
2023-04-16T23:29:26.771Z,76.88
2023-04-16T23:31:58.384Z,76.82
2023-04-16T23:34:29.070Z,76.60
2023-04-16T23:36:59.788Z,76.64
2023-04-16T23:39:30.591Z,76.29
2023-04-16T23:42:01.948Z,76.34
2023-04-16T23:44:32.664Z,76.38
2023-04-16T23:47:03.500Z,76.25
2023-04-16T23:49:34.582Z,76.13
2023-04-16T23:52:05.893Z,76.45
2023-04-16T23:54:36.597Z,76.29
2023-04-16T23:57:07.301Z,76.14
2023-04-16T23:59:38.030Z,76.42
